createdAt,value
2022-10-13T00:03:36.681Z,101904.25
2022-10-13T00:08:38.892Z,101920.19
2022-10-13T00:13:41.707Z,101912.75
2022-10-13T00:18:42.330Z,101905.47
2022-10-13T00:23:45.328Z,101919.47
2022-10-13T00:28:51.290Z,101895.22
2022-10-13T00:33:56.283Z,101910.66
2022-10-13T00:38:58.434Z,101906.50
2022-10-13T00:44:01.949Z,101913.09
2022-10-13T00:49:13.903Z,101865.88
2022-10-13T00:54:30.352Z,101902.25
2022-10-13T00:59:30.116Z,101921.03
2022-10-13T01:04:32.467Z,101882.56
2022-10-13T01:09:37.569Z,101933.31
2022-10-13T01:14:40.501Z,101878.72
2022-10-13T01:20:18.016Z,101932.91
2022-10-13T01:25:36.762Z,101928.06
2022-10-13T01:30:52.927Z,101897.59
2022-10-13T01:36:40.370Z,101895.63
2022-10-13T01:41:50.368Z,101903.13
2022-10-13T01:46:53.172Z,101895.66
2022-10-13T01:52:10.795Z,101909.28
2022-10-13T01:57:37.892Z,101933.97
2022-10-13T02:02:57.643Z,101896.56
2022-10-13T02:08:19.751Z,101934.78
2022-10-13T02:13:42.063Z,101867.53
2022-10-13T02:18:44.261Z,101874.81
2022-10-13T02:23:45.755Z,101873.13
2022-10-13T02:28:45.100Z,101890.88
2022-10-13T02:33:43.899Z,101875.63
2022-10-13T02:38:44.596Z,101884.59
2022-10-13T02:43:48.254Z,101873.88
2022-10-13T02:48:48.245Z,101870.00
2022-10-13T02:53:46.721Z,101860.00
2022-10-13T02:58:46.218Z,101870.34
2022-10-13T03:04:11.471Z,101891.03
2022-10-13T03:09:12.087Z,101860.91
2022-10-13T03:14:14.379Z,101863.28
2022-10-13T03:19:13.552Z,101863.19
2022-10-13T03:24:12.001Z,101845.63
2022-10-13T03:29:15.160Z,101868.88
2022-10-13T03:34:14.584Z,101891.78
2022-10-13T03:39:13.838Z,101868.16
2022-10-13T03:44:13.491Z,101858.75
2022-10-13T03:49:13.559Z,101884.63
2022-10-13T03:54:23.348Z,101853.13
2022-10-13T03:59:36.390Z,101842.53
2022-10-13T04:04:39.934Z,101855.34
2022-10-13T04:09:41.957Z,101910.75
2022-10-13T04:14:40.743Z,101871.41
2022-10-13T04:20:03.640Z,101869.91
2022-10-13T04:25:12.743Z,101885.69
2022-10-13T04:30:13.685Z,101845.56
2022-10-13T04:35:12.682Z,101893.56
2022-10-13T04:40:10.411Z,101882.94
2022-10-13T04:45:16.570Z,101875.25
2022-10-13T04:50:25.346Z,101862.44
2022-10-13T04:55:35.197Z,101900.78
2022-10-13T05:00:32.626Z,101914.56
2022-10-13T05:05:31.595Z,101885.81
2022-10-13T05:10:34.638Z,101883.84
2022-10-13T05:15:36.181Z,101894.03
2022-10-13T05:20:34.584Z,101925.47
2022-10-13T05:25:35.787Z,101896.63
2022-10-13T05:30:35.727Z,101885.34
2022-10-13T05:35:34.338Z,101899.16
2022-10-13T05:40:33.751Z,101874.81
2022-10-13T05:45:33.676Z,101903.47
2022-10-13T05:50:31.857Z,101897.97
2022-10-13T05:55:34.250Z,101918.91
2022-10-13T06:00:35.193Z,101948.59
2022-10-13T06:05:34.385Z,101926.88
2022-10-13T06:10:37.869Z,101906.25
2022-10-13T06:15:42.906Z,101907.09
2022-10-13T06:20:45.529Z,101903.53
2022-10-13T06:25:50.223Z,101895.28
2022-10-13T06:30:55.962Z,101908.69
2022-10-13T06:35:56.767Z,101918.50
2022-10-13T06:40:55.016Z,101905.13
2022-10-13T06:45:57.556Z,101881.22
2022-10-13T06:51:09.065Z,101889.19
2022-10-13T06:56:10.248Z,101887.19
2022-10-13T07:01:10.468Z,101902.47
2022-10-13T07:06:13.436Z,101940.31
2022-10-13T07:11:16.186Z,101906.94
2022-10-13T07:16:18.650Z,101893.13
2022-10-13T07:21:17.432Z,101899.91
2022-10-13T07:26:16.304Z,101943.91
2022-10-13T07:31:29.327Z,101920.41
2022-10-13T07:36:28.306Z,101878.97
2022-10-13T07:41:26.255Z,101935.97
2022-10-13T07:46:29.849Z,101903.94
2022-10-13T07:51:28.025Z,101896.25
2022-10-13T07:56:26.797Z,101914.25
2022-10-13T08:01:25.051Z,101895.09
2022-10-13T08:06:25.127Z,101902.00
2022-10-13T08:11:26.795Z,101883.47
2022-10-13T08:16:25.049Z,101919.91
2022-10-13T08:21:52.792Z,101922.53
2022-10-13T08:26:43.497Z,101871.09
2022-10-13T08:31:42.143Z,101892.00
2022-10-13T08:36:40.253Z,101884.88
2022-10-13T08:41:46.015Z,101896.41
2022-10-13T08:46:56.348Z,101915.75
2022-10-13T08:51:58.286Z,101899.84
2022-10-13T08:56:56.825Z,101886.50
2022-10-13T09:01:57.764Z,101893.28
2022-10-13T09:07:14.705Z,101915.16
2022-10-13T09:12:13.880Z,101888.41
2022-10-13T09:17:25.192Z,101880.66
2022-10-13T09:22:56.960Z,101887.13
2022-10-13T09:27:58.487Z,101889.09
2022-10-13T09:33:13.571Z,101902.81
2022-10-13T09:38:24.614Z,101897.00
2022-10-13T09:43:31.458Z,101903.19
2022-10-13T09:48:33.745Z,101851.69
2022-10-13T09:53:37.881Z,101860.59
2022-10-13T09:58:48.312Z,101854.97
2022-10-13T10:03:50.606Z,101847.66
2022-10-13T10:09:14.752Z,101821.66
2022-10-13T10:14:32.081Z,101847.03
2022-10-13T10:20:04.260Z,101840.56
2022-10-13T10:25:16.348Z,101829.22
2022-10-13T10:30:21.399Z,101820.03
2022-10-13T10:35:46.731Z,101825.50
2022-10-13T10:41:02.574Z,101798.72
2022-10-13T10:46:02.629Z,101794.03
2022-10-13T10:51:02.143Z,101769.44
2022-10-13T10:56:22.768Z,101773.13
2022-10-13T11:02:02.833Z,101767.28
2022-10-13T11:07:04.606Z,101757.75
2022-10-13T11:12:02.496Z,101769.09
2022-10-13T11:17:07.572Z,101767.34
2022-10-13T11:22:05.922Z,101768.41
2022-10-13T11:27:18.430Z,101758.81
2022-10-13T11:32:26.496Z,101750.63
2022-10-13T11:38:05.672Z,101704.94
2022-10-13T11:43:27.517Z,101685.53
2022-10-13T11:48:48.202Z,101713.47
2022-10-13T11:54:01.482Z,101702.91
2022-10-13T11:59:00.210Z,101701.81
2022-10-13T12:04:00.479Z,101683.38
2022-10-13T12:09:05.082Z,101695.63
2022-10-13T12:14:06.237Z,101666.13
2022-10-13T12:19:21.809Z,101678.81
2022-10-13T12:24:27.881Z,101708.16
2022-10-13T12:29:28.861Z,101681.03
2022-10-13T12:34:35.277Z,101668.94
2022-10-13T12:39:34.395Z,101678.91
2022-10-13T12:44:48.812Z,101684.19
2022-10-13T12:50:25.834Z,101685.97
2022-10-13T12:55:29.201Z,101660.09
2022-10-13T13:00:31.583Z,101686.13
2022-10-13T13:05:34.324Z,101658.31
2022-10-13T13:10:37.105Z,101655.16
2022-10-13T13:15:37.811Z,101658.56
2022-10-13T13:20:38.432Z,101635.50
2022-10-13T13:25:36.335Z,101639.94
2022-10-13T13:30:41.815Z,101650.00
2022-10-13T13:35:43.576Z,101631.84
2022-10-13T13:40:44.842Z,101630.72
2022-10-13T13:45:47.885Z,101663.91
2022-10-13T13:50:48.960Z,101633.88
2022-10-13T13:55:54.729Z,101648.94
2022-10-13T14:00:54.826Z,101657.22
2022-10-13T14:05:53.277Z,101635.75
2022-10-13T14:10:52.394Z,101646.84
2022-10-13T14:16:13.377Z,101645.38
2022-10-13T14:21:14.662Z,101637.00
2022-10-13T14:26:18.120Z,101626.72
2022-10-13T14:31:31.790Z,101629.56
2022-10-13T14:36:30.731Z,101645.09
2022-10-13T14:41:34.769Z,101618.75
2022-10-13T14:46:38.202Z,101622.03
2022-10-13T14:51:39.498Z,101627.78
2022-10-13T14:56:38.094Z,101625.06
2022-10-13T15:01:41.722Z,101645.28
2022-10-13T15:06:40.920Z,101658.22
2022-10-13T15:11:40.003Z,101644.97
2022-10-13T15:16:40.572Z,101644.88
2022-10-13T15:21:41.554Z,101633.81
2022-10-13T15:26:43.173Z,101660.69
2022-10-13T15:31:43.432Z,101661.03
2022-10-13T15:36:44.271Z,101633.06
2022-10-13T15:41:44.893Z,101645.94
2022-10-13T15:47:05.593Z,101646.97
2022-10-13T15:52:07.306Z,101652.63
2022-10-13T15:57:05.618Z,101639.50
2022-10-13T16:02:04.255Z,101651.66
2022-10-13T16:07:02.686Z,101650.91
2022-10-13T16:12:02.345Z,101651.38
2022-10-13T16:17:01.115Z,101654.09
2022-10-13T16:22:05.606Z,101661.97
2022-10-13T16:27:04.028Z,101657.56
2022-10-13T16:32:04.894Z,101658.19
2022-10-13T16:37:05.968Z,101678.91
2022-10-13T16:42:05.928Z,101657.50
2022-10-13T16:47:13.562Z,101635.59
2022-10-13T16:52:18.404Z,101646.50
2022-10-13T16:57:19.521Z,101664.22
2022-10-13T17:02:21.094Z,101658.44
2022-10-13T17:07:21.859Z,101650.97
2022-10-13T17:12:19.546Z,101647.22
2022-10-13T17:17:20.421Z,101642.34
2022-10-13T17:22:22.363Z,101652.50
2022-10-13T17:27:33.322Z,101644.97
2022-10-13T17:38:01.158Z,101652.72
2022-10-13T17:43:16.161Z,101621.38
2022-10-13T17:48:23.082Z,101653.97
2022-10-13T17:53:30.755Z,101643.06
2022-10-13T17:58:32.065Z,101609.66
2022-10-13T18:03:34.526Z,101594.13
2022-10-13T18:08:33.661Z,101601.19
2022-10-13T18:13:38.815Z,101625.72
2022-10-13T18:18:38.095Z,101659.59
2022-10-13T18:23:37.163Z,101620.16
2022-10-13T18:28:42.786Z,101593.66
2022-10-13T18:39:22.173Z,101622.50
2022-10-13T18:44:26.648Z,101618.97
2022-10-13T18:49:32.834Z,101641.81
2022-10-13T18:54:38.976Z,101648.59
2022-10-13T18:59:46.636Z,101657.31
2022-10-13T19:04:45.804Z,101676.56
2022-10-13T19:09:54.449Z,101652.22
2022-10-13T19:15:07.334Z,101644.38
2022-10-13T19:20:09.928Z,101673.19
2022-10-13T19:25:09.318Z,101670.56
2022-10-13T19:30:09.694Z,101649.28
2022-10-13T19:35:08.249Z,101637.50
2022-10-13T19:40:17.104Z,101678.75
2022-10-13T19:45:19.660Z,101656.28
2022-10-13T19:50:19.326Z,101669.78
2022-10-13T19:55:27.156Z,101633.88
2022-10-13T20:00:38.956Z,101672.31
2022-10-13T20:05:45.061Z,101663.59
2022-10-13T20:10:48.035Z,101676.56
2022-10-13T20:16:05.486Z,101695.78
2022-10-13T20:21:15.367Z,101678.88
2022-10-13T20:26:29.647Z,101633.00
2022-10-13T20:31:32.563Z,101646.81
2022-10-13T20:36:38.321Z,101632.03
2022-10-13T20:41:37.749Z,101624.50
2022-10-13T20:46:43.836Z,101634.53
2022-10-13T20:51:45.366Z,101638.13
2022-10-13T20:56:43.550Z,101628.59
2022-10-13T21:01:42.898Z,101617.94
2022-10-13T21:06:43.941Z,101601.69
2022-10-13T21:11:43.140Z,101602.13
2022-10-13T21:16:45.858Z,101650.50
2022-10-13T21:21:47.624Z,101603.50
2022-10-13T21:26:47.973Z,101637.72
2022-10-13T21:31:48.607Z,101591.91
2022-10-13T21:36:58.143Z,101635.84
2022-10-13T21:41:56.887Z,101620.81
2022-10-13T21:47:10.945Z,101617.69
2022-10-13T21:52:21.924Z,101603.75
2022-10-13T21:57:38.101Z,101605.38
2022-10-13T22:02:48.160Z,101614.44
2022-10-13T22:07:55.059Z,101597.22
2022-10-13T22:13:00.192Z,101604.34
2022-10-13T22:23:42.836Z,101603.03
2022-10-13T22:28:55.486Z,101641.34
2022-10-13T22:34:26.077Z,101633.50
2022-10-13T22:39:48.032Z,101622.25
2022-10-13T22:50:17.506Z,101623.88
2022-10-13T22:55:17.219Z,101638.97
2022-10-13T23:00:20.573Z,101641.13
2022-10-13T23:05:29.114Z,101643.41
2022-10-13T23:10:58.861Z,101614.44
2022-10-13T23:16:11.975Z,101614.94
2022-10-13T23:21:22.218Z,101629.00
2022-10-13T23:26:22.859Z,101647.28
2022-10-13T23:31:39.028Z,101630.72
2022-10-13T23:36:43.697Z,101625.75
2022-10-13T23:41:48.258Z,101635.88
2022-10-13T23:46:53.431Z,101636.38
2022-10-13T23:51:59.500Z,101642.22
2022-10-13T23:57:01.722Z,101625.09
